Time;durP1;ratioP1;P1;durP2;ratioP2;P2;SDS_P1;SDS_P2;PMS_P1;PMS_P2;Temp;Humidity;BMP_temperature;BMP_pressure;BME280_temperature;BME280_humidity;BME280_pressure;Samples;Min_cycle;Max_cycle;Signal;HPM_P1;HPM_P2
2023/10/24 00:01:42;;;;;;;;;;;;;;;-140.72;100.00;62055.13;5074815;28;20385;-71
2023/10/24 00:04:07;;;;;;;;;;;;;;;-140.72;100.00;62053.09;5072561;28;19927;-71
2023/10/24 00:06:40;;;;;;;;;;;;;;;-140.72;100.00;62051.06;5072120;28;20264;-71
2023/10/24 00:09:06;;;;;;;;;;;;;;;-140.72;100.00;62053.09;5073600;28;19924;-71
2023/10/24 00:11:32;;;;;;;;;;;;;;;-140.72;100.00;62077.50;5072559;28;19920;-71
2023/10/24 00:14:22;;;;;;;;;;;;;;;-140.72;100.00;62042.94;5063529;28;20298;-71
2023/10/24 00:16:48;;;;;;;;;;;;;;;-140.72;100.00;62032.75;5072058;28;19920;-71
2023/10/24 00:19:13;;;;;;;;;;;;;;;-140.72;100.00;62089.72;5070269;28;19942;-71
2023/10/24 00:21:38;;;;;;;;;;;;;;;-140.72;100.00;62079.53;5084076;28;20415;-71
2023/10/24 00:24:04;;;;;;;;;;;;;;;-140.72;100.00;62083.63;5075171;28;19935;-72
2023/10/24 00:26:29;;;;;;;;;;;;;;;-140.72;100.00;62069.38;5073898;28;20323;-72
2023/10/24 00:28:54;;;;;;;;;;;;;;;-140.72;100.00;62077.50;5069618;28;19920;-71
2023/10/24 00:31:19;;;;;;;;;;;;;;;-140.72;100.00;62118.19;5075047;28;19920;-71
2023/10/24 00:33:44;;;;;;;;;;;;;;;-140.72;100.00;62101.91;5072732;28;19921;-72
2023/10/24 00:36:10;;;;;;;;;;;;;;;-140.72;100.00;62099.88;5071606;28;19931;-72
2023/10/24 00:38:35;;;;;;;;;;;;;;;-140.72;100.00;62116.16;5070749;28;19938;-71
2023/10/24 00:41:00;;;;;;;;;;;;;;;-140.72;100.00;62138.53;5068197;28;19920;-71
2023/10/24 00:43:25;;;;;;;;;;;;;;;-140.72;100.00;62120.22;5069412;28;19924;-71
2023/10/24 00:45:51;;;;;;;;;;;;;;;-140.72;100.00;62093.78;5072831;28;19920;-71
2023/10/24 00:48:16;;;;;;;;;;;;;;;-140.72;100.00;62140.56;5067694;28;19983;-71
2023/10/24 00:50:42;;;;;;;;;;;;;;;-140.72;100.00;62140.56;5071804;28;19974;-71
2023/10/24 00:53:07;;;;;;;;;;;;;;;-140.72;100.00;62097.84;5072045;28;20374;-71
2023/10/24 00:55:33;;;;;;;;;;;;;;;-140.72;100.00;62148.72;5071571;28;20332;-71
2023/10/24 00:57:59;;;;;;;;;;;;;;;-140.72;100.00;62187.34;5073306;28;20361;-71
2023/10/24 01:00:26;;;;;;;;;;;;;;;-140.72;100.00;62181.25;5071957;28;19920;-71
2023/10/24 01:02:51;;;;;;;;;;;;;;;-140.72;100.00;62156.84;5071720;28;19932;-71
2023/10/24 01:05:17;;;;;;;;;;;;;;;-140.72;100.00;62175.16;5073048;28;20007;-71
2023/10/24 01:07:42;;;;;;;;;;;;;;;-140.72;100.00;62213.78;5070336;28;19934;-71
2023/10/24 01:10:07;;;;;;;;;;;;;;;-140.72;100.00;62211.75;5070973;28;19920;-71
2023/10/24 01:12:33;;;;;;;;;;;;;;;-140.72;100.00;62213.78;5071986;28;19981;-71
2023/10/24 01:14:58;;;;;;;;;;;;;;;-140.72;100.00;62240.25;5069397;28;19924;-71
2023/10/24 01:17:23;;;;;;;;;;;;;;;-140.72;100.00;62221.94;5068972;28;19920;-71
2023/10/24 01:19:49;;;;;;;;;;;;;;;-140.72;100.00;62236.16;5078360;28;20452;-71
2023/10/24 01:22:14;;;;;;;;;;;;;;;-140.72;100.00;62248.38;5073244;28;19920;-71
2023/10/24 01:24:41;;;;;;;;;;;;;;;-140.72;100.00;62264.66;5064062;28;19927;-71
2023/10/24 01:27:07;;;;;;;;;;;;;;;-140.72;100.00;62295.16;5069708;28;19931;-71
2023/10/24 01:29:32;;;;;;;;;;;;;;;-140.72;100.00;62266.69;5066166;28;20445;-71
2023/10/24 01:31:57;;;;;;;;;;;;;;;-140.72;100.00;62299.22;5069110;28;20329;-71
2023/10/24 01:34:22;;;;;;;;;;;;;;;-140.72;100.00;62293.13;5069228;28;20363;-71
2023/10/24 01:36:48;;;;;;;;;;;;;;;-140.72;100.00;62252.44;5066891;28;19920;-72
2023/10/24 01:39:13;;;;;;;;;;;;;;;-140.72;100.00;62272.78;5067170;28;20019;-71
2023/10/24 01:41:38;;;;;;;;;;;;;;;-140.72;100.00;62254.47;5083706;28;19928;-71
2023/10/24 01:44:03;;;;;;;;;;;;;;;-140.72;100.00;62256.50;5074608;28;19921;-71
2023/10/24 01:46:29;;;;;;;;;;;;;;;-140.72;100.00;62272.78;5070672;28;20950;-71
2023/10/24 01:48:54;;;;;;;;;;;;;;;-140.72;100.00;62238.22;5066974;28;20011;-71
2023/10/24 01:51:22;;;;;;;;;;;;;;;-140.72;100.00;62240.25;5068325;28;19929;-71
2023/10/24 01:53:47;;;;;;;;;;;;;;;-140.72;100.00;62254.47;5065491;28;19920;-71
2023/10/24 01:56:13;;;;;;;;;;;;;;;-140.72;100.00;62252.44;5064401;28;20007;-71
2023/10/24 01:58:38;;;;;;;;;;;;;;;-140.72;100.00;62230.06;5068521;28;19920;-72
2023/10/24 02:01:05;;;;;;;;;;;;;;;-140.72;100.00;62258.56;5070844;28;20354;-71
2023/10/24 02:03:30;;;;;;;;;;;;;;;-140.72;100.00;62258.56;5072651;28;19985;-71
2023/10/24 02:05:55;;;;;;;;;;;;;;;-140.72;100.00;62226.00;5066243;28;19928;-71
2023/10/24 02:08:21;;;;;;;;;;;;;;;-140.72;100.00;62223.97;5070392;28;19920;-71
2023/10/24 02:10:46;;;;;;;;;;;;;;;-140.72;100.00;62183.28;5062496;28;19921;-71
2023/10/24 02:13:11;;;;;;;;;;;;;;;-140.72;100.00;62197.53;5067265;28;19928;-71
2023/10/24 02:15:39;;;;;;;;;;;;;;;-140.72;100.00;62195.50;5067027;28;19974;-71
2023/10/24 02:18:04;;;;;;;;;;;;;;;-140.72;100.00;62205.66;5066258;28;19925;-71
2023/10/24 02:20:30;;;;;;;;;;;;;;;-140.72;100.00;62181.25;5066724;28;19965;-72
2023/10/24 02:22:55;;;;;;;;;;;;;;;-140.72;100.00;62183.28;5065329;28;19966;-72
2023/10/24 02:25:20;;;;;;;;;;;;;;;-140.72;100.00;62191.41;5067718;28;19920;-71
2023/10/24 02:27:45;;;;;;;;;;;;;;;-140.72;100.00;62181.25;5060807;28;19931;-71
2023/10/24 02:30:11;;;;;;;;;;;;;;;-140.72;100.00;62154.81;5066115;28;20027;-71
2023/10/24 02:32:36;;;;;;;;;;;;;;;-140.72;100.00;62160.91;5066277;28;19978;-71
2023/10/24 02:35:14;;;;;;;;;;;;;;;-140.72;100.00;62179.22;5068697;28;19971;-71
2023/10/24 02:37:39;;;;;;;;;;;;;;;-140.72;100.00;62154.81;5073803;28;19923;-71
2023/10/24 02:40:05;;;;;;;;;;;;;;;-140.72;100.00;62189.38;5069131;28;20391;-71
2023/10/24 02:42:30;;;;;;;;;;;;;;;-140.72;100.00;62144.63;5066454;28;20294;-71
2023/10/24 02:44:56;;;;;;;;;;;;;;;-140.72;100.00;62099.88;5071454;28;19924;-72
2023/10/24 02:47:21;;;;;;;;;;;;;;;-140.72;100.00;62134.47;5071743;28;19920;-71
2023/10/24 02:49:46;;;;;;;;;;;;;;;-140.72;100.00;62089.72;5067165;28;20341;-71
2023/10/24 02:52:12;;;;;;;;;;;;;;;-140.72;100.00;62099.88;5068921;28;20012;-71
2023/10/24 02:54:37;;;;;;;;;;;;;;;-140.72;100.00;62091.75;5063712;28;19924;-71
2023/10/24 02:57:02;;;;;;;;;;;;;;;-140.72;100.00;62055.13;5068517;28;19921;-71
2023/10/24 02:59:27;;;;;;;;;;;;;;;-140.72;100.00;62061.25;5061804;28;19921;-71
2023/10/24 03:01:54;;;;;;;;;;;;;;;-140.72;100.00;62024.63;5071237;28;19917;-71
2023/10/24 03:04:19;;;;;;;;;;;;;;;-140.72;100.00;62032.75;5067065;28;19920;-71
2023/10/24 03:06:44;;;;;;;;;;;;;;;-140.72;100.00;61947.34;5072203;28;20268;-71
2023/10/24 03:09:09;;;;;;;;;;;;;;;-140.72;100.00;61951.41;5075616;28;19958;-72
2023/10/24 03:11:34;;;;;;;;;;;;;;;-140.72;100.00;61931.06;5073841;28;19924;-74
2023/10/24 03:14:00;;;;;;;;;;;;;;;-140.72;100.00;61894.44;5077691;28;19928;-71
2023/10/24 03:16:25;;;;;;;;;;;;;;;-140.72;100.00;61894.44;5075917;28;19931;-71
2023/10/24 03:18:50;;;;;;;;;;;;;;;-140.72;100.00;61874.09;5069036;28;19935;-71
2023/10/24 03:21:16;;;;;;;;;;;;;;;-140.72;100.00;61868.00;5070669;28;19992;-71
2023/10/24 03:23:41;;;;;;;;;;;;;;;-140.72;100.00;61849.69;5075026;28;20355;-71
2023/10/24 03:26:06;;;;;;;;;;;;;;;-140.72;100.00;61823.25;5078325;28;19916;-71
2023/10/24 03:28:32;;;;;;;;;;;;;;;-140.72;100.00;61764.28;5088660;28;19928;-72
2023/10/24 03:31:04;;;;;;;;;;;;;;;-140.72;100.00;61745.97;5075525;28;19966;-71
2023/10/24 03:33:31;;;;;;;;;;;;;;;-140.72;100.00;61735.81;5076027;28;20322;-71
2023/10/24 03:35:56;;;;;;;;;;;;;;;-140.72;100.00;61682.91;5076082;28;20008;-71
2023/10/24 03:38:22;;;;;;;;;;;;;;;-140.72;100.00;61701.22;5073220;28;19920;-71
2023/10/24 03:40:47;;;;;;;;;;;;;;;-140.72;100.00;61636.13;5071666;28;19920;-71
2023/10/24 03:43:12;;;;;;;;;;;;;;;-140.72;100.00;61619.88;5067497;28;19927;-71
2023/10/24 03:45:37;;;;;;;;;;;;;;;-140.72;100.00;61581.22;5072361;28;19932;-71
2023/10/24 03:48:03;;;;;;;;;;;;;;;-140.72;100.00;61597.50;5074796;28;20299;-71
2023/10/24 03:50:28;;;;;;;;;;;;;;;-140.72;100.00;61516.16;5068533;28;19921;-71
2023/10/24 03:52:53;;;;;;;;;;;;;;;-140.72;100.00;61552.75;5069543;28;19977;-71
2023/10/24 03:55:18;;;;;;;;;;;;;;;-140.72;100.00;61503.94;5072243;28;20019;-71
2023/10/24 03:57:44;;;;;;;;;;;;;;;-140.72;100.00;61491.75;5071724;28;19969;-74
2023/10/24 04:00:09;;;;;;;;;;;;;;;-140.72;100.00;61465.31;5073603;28;19920;-70
2023/10/24 04:02:35;;;;;;;;;;;;;;;-140.72;100.00;61503.94;5069593;28;19920;-71
2023/10/24 04:05:00;;;;;;;;;;;;;;;-140.72;100.00;61483.59;5075286;28;19920;-70
2023/10/24 04:07:25;;;;;;;;;;;;;;;-140.72;100.00;61471.41;5071548;28;20333;-70
2023/10/24 04:09:50;;;;;;;;;;;;;;;-140.72;100.00;61503.94;5072044;28;19942;-71
2023/10/24 04:12:15;;;;;;;;;;;;;;;-140.72;100.00;61548.69;5070106;28;20023;-71
2023/10/24 04:14:41;;;;;;;;;;;;;;;-140.72;100.00;61538.53;5070261;28;19945;-70
2023/10/24 04:17:06;;;;;;;;;;;;;;;-140.72;100.00;61530.38;5071881;28;19920;-71
2023/10/24 04:19:31;;;;;;;;;;;;;;;-140.72;100.00;61497.84;5072823;28;19977;-71
2023/10/24 04:21:56;;;;;;;;;;;;;;;-140.72;100.00;61524.28;5073069;28;20247;-71
2023/10/24 04:24:22;;;;;;;;;;;;;;;-140.72;100.00;61524.28;5070716;28;20444;-72
2023/10/24 04:26:47;;;;;;;;;;;;;;;-140.72;100.00;61534.44;5074013;28;19924;-72
2023/10/24 04:29:12;;;;;;;;;;;;;;;-140.72;100.00;61524.28;5071752;28;20318;-72
2023/10/24 04:31:37;;;;;;;;;;;;;;;-140.72;100.00;61532.41;5068043;28;20426;-72
2023/10/24 04:34:04;;;;;;;;;;;;;;;-140.72;100.00;61512.06;5067854;28;19966;-71
2023/10/24 04:36:30;;;;;;;;;;;;;;;-140.72;100.00;61530.38;5065473;28;19966;-72
2023/10/24 04:38:55;;;;;;;;;;;;;;;-140.72;100.00;61546.66;5067039;28;20019;-73
2023/10/24 04:41:20;;;;;;;;;;;;;;;-140.72;100.00;61546.66;5069036;28;20007;-77
2023/10/24 04:43:45;;;;;;;;;;;;;;;-140.72;100.00;61556.81;5069546;28;20275;-73
2023/10/24 04:46:11;;;;;;;;;;;;;;;-140.72;100.00;61567.00;5073109;28;19927;-73
2023/10/24 04:48:36;;;;;;;;;;;;;;;-140.72;100.00;61569.03;5074015;28;20373;-72
2023/10/24 04:51:03;;;;;;;;;;;;;;;-140.72;100.00;61573.09;5069082;28;19920;-73
2023/10/24 04:53:28;;;;;;;;;;;;;;;-140.72;100.00;61581.22;5071080;28;20406;-76
2023/10/24 04:55:53;;;;;;;;;;;;;;;-140.72;100.00;61609.69;5069609;28;19921;-73
2023/10/24 04:58:18;;;;;;;;;;;;;;;-140.72;100.00;61640.22;5068226;28;19928;-74
2023/10/24 05:00:43;;;;;;;;;;;;;;;-140.72;100.00;61601.56;5068568;28;19921;-75
2023/10/24 05:03:09;;;;;;;;;;;;;;;-140.72;100.00;61642.25;5066921;28;20003;-73
2023/10/24 05:05:34;;;;;;;;;;;;;;;-140.72;100.00;61646.31;5067365;28;19920;-72
2023/10/24 05:08:06;;;;;;;;;;;;;;;-140.72;100.00;61621.91;5066735;28;19939;-72
2023/10/24 05:10:31;;;;;;;;;;;;;;;-140.72;100.00;61585.28;5065645;28;19943;-72
2023/10/24 05:12:56;;;;;;;;;;;;;;;-140.72;100.00;61613.78;5075825;28;19931;-72
2023/10/24 05:15:22;;;;;;;;;;;;;;;-140.72;100.00;61581.22;5073586;28;19928;-72
2023/10/24 05:17:47;;;;;;;;;;;;;;;-140.72;100.00;61569.03;5072592;28;19969;-72
2023/10/24 05:20:16;;;;;;;;;;;;;;;-140.72;100.00;61534.44;5070557;28;19943;-72
2023/10/24 05:22:42;;;;;;;;;;;;;;;-140.72;100.00;61508.00;5071302;28;20413;-72
2023/10/24 05:25:07;;;;;;;;;;;;;;;-140.72;100.00;61530.38;5069281;28;19924;-72
2023/10/24 05:27:32;;;;;;;;;;;;;;;-140.72;100.00;61526.31;5069513;28;19924;-73
2023/10/24 05:29:58;;;;;;;;;;;;;;;-140.72;100.00;61495.81;5066776;28;19966;-75
2023/10/24 05:32:23;;;;;;;;;;;;;;;-140.72;100.00;61489.72;5065881;28;21357;-72
2023/10/24 05:34:48;;;;;;;;;;;;;;;-140.72;100.00;61510.03;5069242;28;20301;-72
2023/10/24 05:37:13;;;;;;;;;;;;;;;-140.72;100.00;61505.97;5066077;28;20015;-72
2023/10/24 05:39:39;;;;;;;;;;;;;;;-140.72;100.00;61469.38;5068997;28;19959;-72
2023/10/24 05:42:04;;;;;;;;;;;;;;;-140.72;100.00;61455.13;5064910;28;20019;-72
2023/10/24 05:44:29;;;;;;;;;;;;;;;-140.72;100.00;61432.75;5067890;28;19928;-72
2023/10/24 05:46:55;;;;;;;;;;;;;;;-140.72;100.00;61422.59;5065701;28;20083;-74
2023/10/24 05:49:20;;;;;;;;;;;;;;;-140.72;100.00;61406.31;5065725;28;20464;-73
2023/10/24 05:51:45;;;;;;;;;;;;;;;-140.72;100.00;61349.38;5067590;28;19924;-72
2023/10/24 05:54:10;;;;;;;;;;;;;;;-140.72;100.00;61377.84;5068632;28;20391;-72
2023/10/24 05:56:35;;;;;;;;;;;;;;;-140.72;100.00;61375.81;5064176;28;19978;-72
2023/10/24 05:59:01;;;;;;;;;;;;;;;-140.72;100.00;61390.06;5069571;28;19916;-75
2023/10/24 06:01:26;;;;;;;;;;;;;;;-140.72;100.00;61345.31;5063424;28;19921;-73
2023/10/24 06:03:51;;;;;;;;;;;;;;;-140.72;100.00;61306.66;5067379;28;19920;-76
2023/10/24 06:06:17;;;;;;;;;;;;;;;-140.72;100.00;61345.31;5069093;28;19920;-72
2023/10/24 06:08:43;;;;;;;;;;;;;;;-140.72;100.00;61280.22;5066955;28;19949;-71
2023/10/24 06:11:09;;;;;;;;;;;;;;;-140.72;100.00;61253.78;5071604;28;19916;-72
2023/10/24 06:13:34;;;;;;;;;;;;;;;-140.72;100.00;61239.56;5076960;28;20070;-72
2023/10/24 06:16:06;;;;;;;;;;;;;;;-140.72;100.00;61255.81;5072120;28;19917;-72
2023/10/24 06:18:31;;;;;;;;;;;;;;;-140.72;100.00;61272.09;5067835;28;19925;-71
2023/10/24 06:20:56;;;;;;;;;;;;;;;-140.72;100.00;61225.31;5077201;28;19969;-72
2023/10/24 06:23:23;;;;;;;;;;;;;;;-140.72;100.00;61237.53;5067735;28;19928;-71
2023/10/24 06:25:48;;;;;;;;;;;;;;;-140.72;100.00;61227.34;5071192;28;19922;-71
2023/10/24 06:28:13;;;;;;;;;;;;;;;-140.72;100.00;61194.81;5080250;28;19904;-71
2023/10/24 06:30:38;;;;;;;;;;;;;;;-140.72;100.00;61235.50;5068446;28;19917;-71
2023/10/24 06:33:03;;;;;;;;;;;;;;;-140.72;100.00;61217.19;5071224;28;19921;-71
2023/10/24 06:35:29;;;;;;;;;;;;;;;-140.72;100.00;61233.47;5075501;28;19916;-72
2023/10/24 06:37:55;;;;;;;;;;;;;;;-140.72;100.00;61198.88;5072685;28;19916;-71
2023/10/24 06:40:20;;;;;;;;;;;;;;;-140.72;100.00;61202.94;5074370;28;19925;-71
2023/10/24 06:42:46;;;;;;;;;;;;;;;-140.72;100.00;61200.91;5076440;28;19988;-71
2023/10/24 06:45:11;;;;;;;;;;;;;;;-140.72;100.00;61215.16;5071386;28;19927;-71
2023/10/24 06:47:37;;;;;;;;;;;;;;;-140.72;100.00;61166.34;5072235;28;19916;-71
2023/10/24 06:50:02;;;;;;;;;;;;;;;-140.72;100.00;61186.69;5069165;28;19927;-72
2023/10/24 06:52:27;;;;;;;;;;;;;;;-140.72;100.00;61172.44;5064188;28;19936;-73
2023/10/24 06:54:52;;;;;;;;;;;;;;;-140.72;100.00;61182.63;5067560;28;19921;-72
2023/10/24 06:57:18;;;;;;;;;;;;;;;-140.72;100.00;61146.00;5064016;28;20298;-72
2023/10/24 06:59:43;;;;;;;;;;;;;;;-140.72;100.00;61152.13;5079293;28;20060;-74
2023/10/24 07:02:09;;;;;;;;;;;;;;;-140.72;100.00;61137.88;5076769;28;19920;-71
2023/10/24 07:04:34;;;;;;;;;;;;;;;-140.72;100.00;61097.22;5074887;28;19974;-72
2023/10/24 07:06:59;;;;;;;;;;;;;;;-140.72;100.00;61052.47;5064826;28;20355;-72
2023/10/24 07:09:24;;;;;;;;;;;;;;;-140.72;100.00;61060.59;5070247;28;20442;-72
2023/10/24 07:11:50;;;;;;;;;;;;;;;-140.72;100.00;61032.13;5073441;28;19920;-72
2023/10/24 07:14:15;;;;;;;;;;;;;;;-140.72;100.00;61036.19;5075377;28;19920;-72
2023/10/24 07:16:40;;;;;;;;;;;;;;;-140.72;100.00;61040.28;5069613;28;19925;-73
2023/10/24 07:19:05;;;;;;;;;;;;;;;-140.72;100.00;61028.06;5077551;28;20261;-72
2023/10/24 07:21:30;;;;;;;;;;;;;;;-140.72;100.00;61028.06;5065711;28;20286;-71
2023/10/24 07:23:56;;;;;;;;;;;;;;;-140.72;100.00;60999.59;5071842;28;19935;-72
2023/10/24 07:26:22;;;;;;;;;;;;;;;-140.72;100.00;60963.00;5065418;28;19931;-72
2023/10/24 07:28:47;;;;;;;;;;;;;;;-140.72;100.00;60930.47;5065770;28;19975;-71
2023/10/24 07:31:12;;;;;;;;;;;;;;;-140.72;100.00;60914.19;5063786;28;19983;-72
2023/10/24 07:33:37;;;;;;;;;;;;;;;-140.72;100.00;60938.59;5078924;28;19961;-72
2023/10/24 07:36:06;;;;;;;;;;;;;;;-140.72;100.00;60845.06;5069271;28;20285;-70
2023/10/24 07:38:32;;;;;;;;;;;;;;;-140.72;100.00;60879.63;5062567;28;20639;-71
2023/10/24 07:40:57;;;;;;;;;;;;;;;-140.72;100.00;60830.81;5064738;28;19928;-70
2023/10/24 07:43:22;;;;;;;;;;;;;;;-140.72;100.00;60804.38;5067539;28;19937;-71
2023/10/24 07:45:50;;;;;;;;;;;;;;;-140.72;100.00;60749.47;5063390;28;19924;-71
2023/10/24 07:48:15;;;;;;;;;;;;;;;-140.72;100.00;60702.72;5064173;28;19931;-73
2023/10/24 07:50:48;;;;;;;;;;;;;;;-140.72;100.00;60649.84;5065501;28;19935;-71
2023/10/24 07:53:13;;;;;;;;;;;;;;;-140.72;100.00;60629.50;5069338;28;20374;-69
2023/10/24 07:55:38;;;;;;;;;;;;;;;-140.72;100.00;60586.81;5076260;28;19921;-70
2023/10/24 07:58:04;;;;;;;;;;;;;;;-140.72;100.00;60548.19;5075594;28;20293;-70
2023/10/24 08:00:29;;;;;;;;;;;;;;;-140.72;100.00;60497.34;5075200;28;19924;-70
2023/10/24 08:02:54;;;;;;;;;;;;;;;-140.72;100.00;60446.53;5075491;28;19988;-70
2023/10/24 08:05:19;;;;;;;;;;;;;;;-140.72;100.00;60416.03;5073688;28;19964;-71
2023/10/24 08:07:45;;;;;;;;;;;;;;;-140.72;100.00;60306.22;5074143;28;19928;-70
2023/10/24 08:10:10;;;;;;;;;;;;;;;-140.72;100.00;60271.66;5072680;28;19943;-70
2023/10/24 08:12:35;;;;;;;;;;;;;;;-140.72;100.00;60167.97;5071981;28;19928;-70
2023/10/24 08:15:00;;;;;;;;;;;;;;;-140.72;100.00;60123.25;5073177;28;20059;-70
2023/10/24 08:17:26;;;;;;;;;;;;;;;-140.72;100.00;60003.28;5080946;28;19994;-70
2023/10/24 08:19:51;;;;;;;;;;;;;;;-140.72;100.00;59942.31;5074677;28;20424;-70
2023/10/24 08:22:16;;;;;;;;;;;;;;;-140.72;100.00;59875.22;5068041;28;19989;-70
2023/10/24 08:24:41;;;;;;;;;;;;;;;-140.72;100.00;59781.69;5072943;28;19916;-72
2023/10/24 08:27:06;;;;;;;;;;;;;;;-140.72;100.00;59730.88;5073573;28;19929;-72
2023/10/24 08:29:32;;;;;;;;;;;;;;;-140.72;100.00;59669.91;5078532;28;19924;-76
2023/10/24 08:31:57;;;;;;;;;;;;;;;-140.72;100.00;59621.09;5073504;28;19932;-70
2023/10/24 08:34:22;;;;;;;;;;;;;;;-140.72;100.00;59529.63;5069227;28;19925;-70
2023/10/24 08:36:47;;;;;;;;;;;;;;;-140.72;100.00;59466.63;5072754;28;19921;-70
2023/10/24 08:39:13;;;;;;;;;;;;;;;-140.72;100.00;59438.16;5079278;28;19920;-70
2023/10/24 08:41:40;;;;;;;;;;;;;;;-140.72;100.00;59379.22;5074147;28;19921;-70
2023/10/24 08:44:06;;;;;;;;;;;;;;;-140.72;100.00;59375.16;5071125;28;20306;-70
2023/10/24 08:46:33;;;;;;;;;;;;;;;-140.72;100.00;59320.25;5081959;28;19969;-70
2023/10/24 08:48:59;;;;;;;;;;;;;;;-140.72;100.00;59259.28;5077548;28;19956;-70
2023/10/24 08:51:24;;;;;;;;;;;;;;;-140.72;100.00;59263.34;5072599;28;19928;-70
2023/10/24 08:53:49;;;;;;;;;;;;;;;-140.72;100.00;59230.81;5067197;28;20015;-70
2023/10/24 08:56:14;;;;;;;;;;;;;;;-140.72;100.00;59214.56;5066888;28;19920;-72
2023/10/24 08:58:42;;;;;;;;;;;;;;;-140.72;100.00;59196.28;5064206;28;20028;-72
2023/10/24 09:01:08;;;;;;;;;;;;;;;-140.72;100.00;59177.97;5068644;28;19924;-72
2023/10/24 09:03:35;;;;;;;;;;;;;;;-140.72;100.00;59165.78;5072615;28;19978;-72
2023/10/24 09:06:01;;;;;;;;;;;;;;;-140.72;100.00;59192.19;5071028;28;19977;-70
2023/10/24 09:08:26;;;;;;;;;;;;;;;-140.72;100.00;59169.84;5074670;28;20351;-70
2023/10/24 09:10:51;;;;;;;;;;;;;;;-140.72;100.00;59123.09;5069995;28;20014;-70
2023/10/24 09:13:17;;;;;;;;;;;;;;;-140.72;100.00;59092.59;5071951;28;19920;-70
2023/10/24 09:15:42;;;;;;;;;;;;;;;-140.72;100.00;59092.59;5076273;28;19963;-69
2023/10/24 09:18:08;;;;;;;;;;;;;;;-140.72;100.00;59064.16;5074251;28;19920;-70
2023/10/24 09:20:33;;;;;;;;;;;;;;;-140.72;100.00;59051.97;5065345;28;19971;-70
2023/10/24 09:23:05;;;;;;;;;;;;;;;-140.72;100.00;59051.97;5073523;28;20003;-71
2023/10/24 09:25:31;;;;;;;;;;;;;;;-140.72;100.00;59047.91;5067804;28;19990;-73
2023/10/24 09:28:13;;;;;;;;;;;;;;;-140.72;100.00;59019.44;5072174;28;19921;-73
2023/10/24 09:30:39;;;;;;;;;;;;;;;-140.72;100.00;58970.66;5069070;28;19921;-73
2023/10/24 09:33:04;;;;;;;;;;;;;;;-140.72;100.00;58964.56;5069013;28;19920;-70
2023/10/24 09:35:29;;;;;;;;;;;;;;;-140.72;100.00;58948.31;5067228;28;19928;-70
2023/10/24 09:37:55;;;;;;;;;;;;;;;-140.72;100.00;58938.13;5072055;28;19920;-70
2023/10/24 09:40:20;;;;;;;;;;;;;;;-140.72;100.00;58952.38;5067418;28;20290;-70
2023/10/24 09:42:46;;;;;;;;;;;;;;;-140.72;100.00;58927.97;5072062;28;19974;-71
2023/10/24 09:45:13;;;;;;;;;;;;;;;-140.72;100.00;58954.41;5068593;28;19967;-70
2023/10/24 09:47:39;;;;;;;;;;;;;;;-140.72;100.00;58907.66;5070724;28;20382;-70
2023/10/24 09:50:05;;;;;;;;;;;;;;;-140.72;100.00;58938.13;5059605;28;20055;-70
2023/10/24 09:52:31;;;;;;;;;;;;;;;-140.72;100.00;58923.91;5072133;28;20350;-72
2023/10/24 09:54:57;;;;;;;;;;;;;;;-140.72;100.00;58964.56;5072616;28;19917;-71
2023/10/24 09:57:23;;;;;;;;;;;;;;;-140.72;100.00;58974.72;5071356;28;20043;-71
2023/10/24 09:59:52;;;;;;;;;;;;;;;-140.72;100.00;59007.25;5071068;28;20025;-71
2023/10/24 10:02:19;;;;;;;;;;;;;;;-140.72;100.00;59025.53;5067015;28;20002;-70
2023/10/24 10:04:45;;;;;;;;;;;;;;;-140.72;100.00;59005.22;5066275;28;19927;-71
2023/10/24 10:07:11;;;;;;;;;;;;;;;-140.72;100.00;59068.22;5071203;28;19920;-71
2023/10/24 10:09:41;;;;;;;;;;;;;;;-140.72;100.00;59080.41;5064846;28;19927;-71
2023/10/24 10:12:07;;;;;;;;;;;;;;;-140.72;100.00;59169.84;5073840;28;19924;-71
2023/10/24 10:14:42;;;;;;;;;;;;;;;-140.72;100.00;59212.53;5070518;28;20327;-71
2023/10/24 10:17:30;;;;;;;;;;;;;;;-140.72;100.00;59232.84;5061334;28;19921;-70
2023/10/24 10:20:18;;;;;;;;;;;;;;;-140.72;100.00;59271.47;5070318;28;19995;-71
2023/10/24 10:22:50;;;;;;;;;;;;;;;-140.72;100.00;59261.31;5069322;28;20283;-72
2023/10/24 10:25:31;;;;;;;;;;;;;;;-140.72;100.00;59271.47;5071373;28;20014;-72
2023/10/24 10:28:15;;;;;;;;;;;;;;;-140.72;100.00;59206.44;5064717;28;19997;-71
2023/10/24 10:30:46;;;;;;;;;;;;;;;-140.72;100.00;59224.72;5080888;28;19941;-71
2023/10/24 10:33:15;;;;;;;;;;;;;;;-140.72;100.00;59194.25;5082885;28;19966;-71
2023/10/24 10:36:02;;;;;;;;;;;;;;;-140.72;100.00;59171.88;5080277;28;19928;-71
2023/10/24 10:38:40;;;;;;;;;;;;;;;-140.72;100.00;59192.19;5075568;28;19935;-71
2023/10/24 10:41:24;;;;;;;;;;;;;;;-140.72;100.00;59147.50;5090042;28;19928;-71
2023/10/24 10:43:50;;;;;;;;;;;;;;;-140.72;100.00;59139.34;5069611;28;19924;-72
2023/10/24 10:46:19;;;;;;;;;;;;;;;-140.72;100.00;59137.31;5071453;28;19932;-72
2023/10/24 10:48:44;;;;;;;;;;;;;;;-140.72;100.00;59157.66;5064796;28;19996;-71
2023/10/24 10:51:16;;;;;;;;;;;;;;;-140.72;100.00;59159.69;5067457;28;20406;-71
2023/10/24 10:53:47;;;;;;;;;;;;;;;-140.72;100.00;59222.69;5069274;28;19997;-72
2023/10/24 10:56:22;;;;;;;;;;;;;;;-140.72;100.00;59171.88;5068233;28;19992;-71
2023/10/24 10:59:03;;;;;;;;;;;;;;;-140.72;100.00;59173.91;5065293;28;20018;-71
2023/10/24 11:01:33;;;;;;;;;;;;;;;-140.72;100.00;59198.31;5068638;28;19974;-79
2023/10/24 11:03:58;;;;;;;;;;;;;;;-140.72;100.00;59159.69;5071248;28;20310;-72
2023/10/24 11:06:26;;;;;;;;;;;;;;;-140.72;100.00;59210.50;5075815;28;19926;-73
2023/10/24 11:09:10;;;;;;;;;;;;;;;-140.72;100.00;59230.81;5075776;28;19969;-71
2023/10/24 11:11:37;;;;;;;;;;;;;;;-140.72;100.00;59287.75;5079355;28;19924;-70
2023/10/24 11:14:14;;;;;;;;;;;;;;;-140.72;100.00;59344.66;5077178;28;20023;-70
2023/10/24 11:16:43;;;;;;;;;;;;;;;-140.72;100.00;59440.19;5064358;28;19952;-70
2023/10/24 11:19:24;;;;;;;;;;;;;;;-140.72;100.00;59482.88;5068836;28;20251;-70
2023/10/24 11:21:50;;;;;;;;;;;;;;;-140.72;100.00;59602.81;5079043;28;19927;-70
2023/10/24 11:24:17;;;;;;;;;;;;;;;-140.72;100.00;59708.53;5070089;28;20332;-71
2023/10/24 11:26:43;;;;;;;;;;;;;;;-140.72;100.00;59818.28;5066679;28;19939;-71
2023/10/24 11:29:09;;;;;;;;;;;;;;;-140.72;100.00;59903.69;5068446;28;20298;-72
2023/10/24 11:31:35;;;;;;;;;;;;;;;-140.72;100.00;59991.09;5070003;28;19920;-71
2023/10/24 11:34:01;;;;;;;;;;;;;;;-140.72;100.00;60052.09;5071740;28;20408;-71
2023/10/24 11:36:27;;;;;;;;;;;;;;;-140.72;100.00;60117.16;5070187;28;20014;-71
2023/10/24 11:38:52;;;;;;;;;;;;;;;-140.72;100.00;60206.59;5070700;28;19951;-71
2023/10/24 11:41:17;;;;;;;;;;;;;;;-140.72;100.00;60257.44;5069270;28;19992;-71
2023/10/24 11:43:47;;;;;;;;;;;;;;;-140.72;100.00;60287.94;5069836;28;19921;-71
2023/10/24 11:46:13;;;;;;;;;;;;;;;-140.72;100.00;60330.63;5071548;28;21360;-71
2023/10/24 11:48:38;;;;;;;;;;;;;;;-140.72;100.00;60436.34;5072416;28;19927;-73
2023/10/24 11:51:03;;;;;;;;;;;;;;;-140.72;100.00;60462.78;5070783;28;19971;-71
2023/10/24 11:53:28;;;;;;;;;;;;;;;-140.72;100.00;60474.97;5072458;28;19921;-71
2023/10/24 11:55:54;;;;;;;;;;;;;;;-140.72;100.00;60491.25;5071203;28;20000;-71
2023/10/24 11:58:20;;;;;;;;;;;;;;;-140.72;100.00;60499.38;5078083;28;19927;-71
2023/10/24 12:00:45;;;;;;;;;;;;;;;-140.72;100.00;60493.28;5070574;28;20012;-71
2023/10/24 12:03:10;;;;;;;;;;;;;;;-140.72;100.00;60442.44;5074076;28;19924;-72
2023/10/24 12:05:36;;;;;;;;;;;;;;;-140.72;100.00;60446.53;5073921;28;19982;-71
2023/10/24 12:08:02;;;;;;;;;;;;;;;-140.72;100.00;60434.31;5071731;28;19916;-72
2023/10/24 12:10:28;;;;;;;;;;;;;;;-140.72;100.00;60397.72;5073503;28;19982;-72
2023/10/24 12:12:57;;;;;;;;;;;;;;;-140.72;100.00;60395.69;5073493;28;19955;-71
2023/10/24 12:15:23;;;;;;;;;;;;;;;-140.72;100.00;60389.59;5076515;28;19958;-72